Time;durP1;ratioP1;P1;durP2;ratioP2;P2;SDS_P1;SDS_P2;PMS_P1;PMS_P2;Temp;Humidity;BMP_temperature;BMP_pressure;BME280_temperature;BME280_humidity;BME280_pressure;Samples;Min_cycle;Max_cycle;Signal;HPM_P1;HPM_P2
2021/06/15 00:02:10;;;;;;;10.60;8.60;;;15.20;71.50;;;;;;6121201;23;20032;-73
2021/06/15 00:04:37;;;;;;;13.82;9.10;;;15.20;71.50;;;;;;6122711;23;20456;-72
2021/06/15 00:07:03;;;;;;;13.82;8.75;;;15.20;71.50;;;;;;6121617;23;20342;-73
2021/06/15 00:09:30;;;;;;;11.40;8.45;;;15.20;71.50;;;;;;6122609;23;20014;-74
2021/06/15 00:11:56;;;;;;;11.77;9.77;;;15.20;71.40;;;;;;6120100;23;20048;-72
2021/06/15 00:14:23;;;;;;;12.18;9.82;;;15.20;71.30;;;;;;6121754;23;20005;-73
2021/06/15 00:16:49;;;;;;;16.08;12.10;;;15.10;71.40;;;;;;6122717;23;20010;-73
2021/06/15 00:19:16;;;;;;;14.50;11.25;;;15.10;71.50;;;;;;6121240;23;20013;-74
2021/06/15 00:21:42;;;;;;;13.18;11.68;;;15.10;71.60;;;;;;6122073;23;20009;-73
2021/06/15 00:24:09;;;;;;;14.77;11.73;;;15.10;71.60;;;;;;6121427;23;20553;-72
2021/06/15 00:26:35;;;;;;;18.83;14.07;;;15.10;71.80;;;;;;6122675;23;20393;-73
2021/06/15 00:29:02;;;;;;;20.88;15.20;;;15.10;72.00;;;;;;6122228;23;20072;-73
2021/06/15 00:31:33;;;;;;;18.60;13.27;;;15.10;72.10;;;;;;6121483;23;20427;-72
2021/06/15 00:33:59;;;;;;;18.00;13.95;;;15.10;72.30;;;;;;6122585;23;20006;-74
2021/06/15 00:36:26;;;;;;;16.05;14.05;;;15.10;72.50;;;;;;6121326;23;20042;-71
2021/06/15 00:38:52;;;;;;;19.85;14.15;;;15.10;72.60;;;;;;6122685;23;20006;-73
2021/06/15 00:41:19;;;;;;;19.35;14.10;;;15.10;72.70;;;;;;6121218;23;20056;-74
2021/06/15 00:43:45;;;;;;;16.67;13.98;;;15.10;72.90;;;;;;6120956;23;20574;-73
2021/06/15 00:46:12;;;;;;;20.88;15.73;;;15.10;73.00;;;;;;6121383;23;20497;-73
2021/06/15 00:48:38;;;;;;;19.35;14.93;;;15.10;73.10;;;;;;6122067;23;20374;-73
2021/06/15 00:51:06;;;;;;;19.80;15.57;;;15.10;73.30;;;;;;6122179;23;20426;-74
2021/06/15 00:53:35;;;;;;;18.75;14.18;;;15.10;73.40;;;;;;6120859;23;20049;-72
2021/06/15 00:56:01;;;;;;;18.85;15.60;;;15.10;73.60;;;;;;6122433;23;20002;-73
2021/06/15 00:58:28;;;;;;;21.05;16.50;;;15.10;73.70;;;;;;6121155;23;19995;-73
2021/06/15 01:00:54;;;;;;;20.88;15.88;;;15.10;73.80;;;;;;6122159;23;20134;-72
2021/06/15 01:03:23;;;;;;;20.98;16.40;;;15.10;73.90;;;;;;6120731;23;20002;-72
2021/06/15 01:05:50;;;;;;;19.75;15.88;;;15.10;74.00;;;;;;6121972;23;20097;-72
2021/06/15 01:08:26;;;;;;;23.45;16.90;;;15.10;74.00;;;;;;6120108;23;20093;-72
2021/06/15 01:11:09;;;;;;;23.23;16.73;;;15.10;74.10;;;;;;6120991;23;20008;-74
2021/06/15 01:13:41;;;;;;;21.33;17.50;;;15.10;74.20;;;;;;6122204;23;20002;-74
2021/06/15 01:16:12;;;;;;;21.55;17.27;;;15.10;74.30;;;;;;6120955;23;20006;-72
2021/06/15 01:18:45;;;;;;;25.25;18.17;;;15.10;74.30;;;;;;6122118;23;20013;-74
2021/06/15 01:21:13;;;;;;;24.77;19.48;;;15.10;74.40;;;;;;6122269;23;20006;-74
2021/06/15 01:23:48;;;;;;;21.45;18.15;;;15.10;74.60;;;;;;6121471;23;19994;-74
2021/06/15 01:26:40;;;;;;;24.10;17.58;;;15.10;74.80;;;;;;6122601;23;20006;-74
2021/06/15 01:29:15;;;;;;;26.02;18.83;;;15.10;74.90;;;;;;6121368;23;20033;-74
2021/06/15 01:31:49;;;;;;;26.23;19.00;;;15.10;75.10;;;;;;6122281;23;20006;-74
2021/06/15 01:34:42;;;;;;;26.58;19.65;;;15.10;75.20;;;;;;6122333;23;20005;-72
2021/06/15 01:37:21;;;;;;;25.25;18.88;;;15.10;75.40;;;;;;6120888;23;20005;-72
2021/06/15 01:40:03;;;;;;;25.85;18.88;;;15.10;75.50;;;;;;6121827;23;20474;-73
2021/06/15 01:42:37;;;;;;;23.95;18.02;;;15.10;75.60;;;;;;6121095;23;20009;-72
2021/06/15 01:45:19;;;;;;;22.30;17.00;;;15.10;75.70;;;;;;6121306;23;20410;-74
2021/06/15 01:48:06;;;;;;;20.98;17.65;;;15.10;75.80;;;;;;6121877;23;20570;-74
2021/06/15 01:50:39;;;;;;;22.58;17.50;;;15.10;75.80;;;;;;6100627;23;20060;-72
2021/06/15 01:53:10;;;;;;;22.38;16.80;;;15.10;75.90;;;;;;6121111;23;20022;-72
2021/06/15 01:55:41;;;;;;;22.60;16.33;;;15.10;76.00;;;;;;6120741;23;20037;-74
2021/06/15 01:58:09;;;;;;;23.30;16.40;;;15.10;76.10;;;;;;6120915;23;20875;-72
2021/06/15 02:00:38;;;;;;;26.85;17.52;;;15.10;76.10;;;;;;6121768;23;20010;-74
2021/06/15 02:03:06;;;;;;;29.33;18.13;;;15.10;76.20;;;;;;6120354;23;20009;-73
2021/06/15 02:05:40;;;;;;;24.02;17.63;;;15.10;76.20;;;;;;6121687;23;20033;-72
2021/06/15 02:08:09;;;;;;;20.10;16.05;;;15.10;76.30;;;;;;6120321;23;20476;-72
2021/06/15 02:10:36;;;;;;;23.77;15.85;;;15.10;76.40;;;;;;6121652;23;20013;-73
2021/06/15 02:13:43;;;;;;;21.30;16.25;;;15.10;76.50;;;;;;6119881;23;20010;-73
2021/06/15 02:16:49;;;;;;;18.60;15.57;;;15.10;76.50;;;;;;6120308;23;20033;-73
2021/06/15 02:19:58;;;;;;;21.17;14.65;;;15.10;76.50;;;;;;6121804;23;20036;-72
2021/06/15 02:23:07;;;;;;;18.70;14.82;;;15.10;76.60;;;;;;6121595;23;20136;-72
2021/06/15 02:26:14;;;;;;;17.83;14.68;;;15.10;76.50;;;;;;6120439;23;20581;-72
2021/06/15 02:29:20;;;;;;;19.23;15.15;;;15.10;76.50;;;;;;6120390;23;20010;-72
2021/06/15 02:32:26;;;;;;;21.00;14.90;;;15.10;76.60;;;;;;6121335;23;20362;-73
2021/06/15 02:35:32;;;;;;;19.63;15.95;;;15.10;76.60;;;;;;6121306;23;20010;-72
2021/06/15 02:38:44;;;;;;;20.52;15.43;;;15.10;76.70;;;;;;6120238;23;20001;-72
2021/06/15 02:41:50;;;;;;;20.35;16.20;;;15.10;76.70;;;;;;6121104;23;20037;-73
2021/06/15 02:44:56;;;;;;;23.15;16.30;;;15.10;76.70;;;;;;6121296;23;20013;-74
2021/06/15 02:48:02;;;;;;;19.10;15.90;;;15.10;76.70;;;;;;6120510;23;20012;-74
2021/06/15 02:51:09;;;;;;;21.40;17.08;;;15.10;76.70;;;;;;6120443;23;20009;-73
2021/06/15 02:54:16;;;;;;;22.23;15.90;;;15.10;76.80;;;;;;6121478;23;20014;-73
2021/06/15 02:57:23;;;;;;;21.23;15.50;;;15.00;76.70;;;;;;6101443;23;20386;-74
2021/06/15 03:00:29;;;;;;;21.73;16.45;;;15.00;76.70;;;;;;6119957;23;20024;-74
2021/06/15 03:03:35;;;;;;;23.80;16.77;;;15.00;76.70;;;;;;6120905;23;20010;-73
2021/06/15 03:06:41;;;;;;;21.95;15.95;;;15.00;76.70;;;;;;6121622;23;20330;-74
2021/06/15 03:09:47;;;;;;;22.65;18.88;;;15.00;76.60;;;;;;6121273;23;20010;-73
2021/06/15 03:13:08;;;;;;;31.83;23.30;;;15.00;76.50;;;;;;6122660;23;20528;-73
2021/06/15 03:15:44;;;;;;;27.33;21.67;;;15.00;76.50;;;;;;6123110;23;20006;-72
2021/06/15 03:18:46;;;;;;;26.42;20.10;;;15.00;76.60;;;;;;6123422;23;20153;-73
2021/06/15 03:21:52;;;;;;;21.85;17.17;;;15.00;76.60;;;;;;6122013;23;20017;-72
2021/06/15 03:24:58;;;;;;;19.83;16.85;;;15.00;76.60;;;;;;6123325;23;20453;-72
2021/06/15 03:28:06;;;;;;;25.25;19.23;;;15.00;76.60;;;;;;6123138;23;20002;-72
2021/06/15 03:31:12;;;;;;;21.33;15.52;;;15.00;76.70;;;;;;6119373;23;20065;-72
2021/06/15 03:34:18;;;;;;;26.60;15.93;;;15.00;76.80;;;;;;6121902;23;20052;-73
2021/06/15 03:37:25;;;;;;;19.15;15.65;;;15.00;77.00;;;;;;6123005;23;20002;-71
2021/06/15 03:39:54;;;;;;;23.73;15.07;;;15.00;77.20;;;;;;6122783;23;20021;-73
2021/06/15 03:42:24;;;;;;;21.38;16.75;;;15.00;77.40;;;;;;6121961;23;20009;-72
2021/06/15 03:44:58;;;;;;;21.02;16.52;;;15.00;77.50;;;;;;6122437;23;20382;-72
2021/06/15 03:47:26;;;;;;;24.90;17.55;;;15.00;77.60;;;;;;6121578;23;19998;-73
2021/06/15 03:49:54;;;;;;;22.90;17.90;;;15.00;77.80;;;;;;6122956;23;20050;-72
2021/06/15 03:52:24;;;;;;;39.13;28.92;;;15.00;77.80;;;;;;6122160;23;20024;-73
2021/06/15 03:54:52;;;;;;;38.75;28.42;;;14.90;77.80;;;;;;6122344;23;20089;-73
2021/06/15 03:57:18;;;;;;;32.60;24.38;;;15.00;77.90;;;;;;6122874;23;20069;-73
2021/06/15 03:59:48;;;;;;;31.13;21.00;;;15.00;77.90;;;;;;6121787;23;20010;-72
2021/06/15 04:02:15;;;;;;;25.67;20.27;;;15.00;77.80;;;;;;6122725;23;20452;-71
2021/06/15 04:04:45;;;;;;;24.83;19.42;;;15.00;77.80;;;;;;6121556;23;20073;-73
2021/06/15 04:07:16;;;;;;;22.25;17.75;;;15.00;77.90;;;;;;6123119;23;20009;-71
2021/06/15 04:09:47;;;;;;;21.13;16.75;;;15.00;77.90;;;;;;6120967;23;20047;-81
2021/06/15 04:12:15;;;;;;;21.75;16.55;;;15.00;78.00;;;;;;6122394;23;20002;-74
2021/06/15 04:14:48;;;;;;;25.25;16.70;;;15.00;77.90;;;;;;6123039;23;20073;-72
2021/06/15 04:17:20;;;;;;;20.88;15.40;;;15.00;78.00;;;;;;6120951;23;20010;-76
2021/06/15 04:19:51;;;;;;;24.00;16.55;;;15.00;78.10;;;;;;6124301;23;20018;-72
2021/06/15 04:22:18;;;;;;;22.20;16.92;;;15.00;78.10;;;;;;6120928;23;20453;-70
2021/06/15 04:24:51;;;;;;;23.40;18.80;;;15.00;78.20;;;;;;6122575;23;20040;-72
2021/06/15 04:27:21;;;;;;;23.40;18.60;;;15.00;78.20;;;;;;6122112;23;20006;-73
2021/06/15 04:29:49;;;;;;;26.63;18.15;;;15.00;78.30;;;;;;6121567;23;21000;-72
2021/06/15 04:32:19;;;;;;;23.42;18.25;;;15.00;78.40;;;;;;6121099;23;20049;-70
2021/06/15 04:34:53;;;;;;;24.67;16.42;;;15.00;78.40;;;;;;6120677;23;20002;-71
2021/06/15 04:37:20;;;;;;;21.75;17.23;;;14.90;78.30;;;;;;6122536;23;19998;-74
2021/06/15 04:39:53;;;;;;;20.88;15.60;;;15.00;78.50;;;;;;6121165;23;20142;-73
2021/06/15 04:42:55;;;;;;;22.48;16.20;;;15.00;78.60;;;;;;6122008;23;20006;-73
2021/06/15 04:45:37;;;;;;;24.30;15.93;;;14.90;78.60;;;;;;6122779;23;19998;-73
2021/06/15 04:48:06;;;;;;;22.48;15.93;;;15.00;78.60;;;;;;6120608;23;20069;-72
2021/06/15 04:50:34;;;;;;;18.95;15.55;;;15.00;78.70;;;;;;6121660;23;20009;-72
2021/06/15 04:53:03;;;;;;;23.95;15.18;;;15.00;78.80;;;;;;6121555;23;20315;-73
2021/06/15 04:55:35;;;;;;;15.93;14.05;;;14.90;78.90;;;;;;6121819;23;19998;-75
2021/06/15 04:58:03;;;;;;;20.13;15.30;;;14.90;79.00;;;;;;6122277;23;20009;-73
2021/06/15 05:00:30;;;;;;;19.30;14.00;;;14.90;79.00;;;;;;6121070;23;20110;-73
2021/06/15 05:03:00;;;;;;;20.70;14.07;;;14.90;79.20;;;;;;6122137;23;20010;-74
2021/06/15 05:05:27;;;;;;;17.73;13.48;;;14.90;79.30;;;;;;6121231;23;20060;-74
2021/06/15 05:08:02;;;;;;;18.20;12.48;;;14.90;79.50;;;;;;6121291;23;20330;-73
2021/06/15 05:10:30;;;;;;;20.80;13.93;;;15.00;79.70;;;;;;6121552;23;20006;-73
2021/06/15 05:12:58;;;;;;;18.23;12.15;;;14.90;79.70;;;;;;6121320;23;20216;-72
2021/06/15 05:15:30;;;;;;;17.33;12.68;;;15.00;79.80;;;;;;6122288;23;19998;-73
2021/06/15 05:17:57;;;;;;;19.10;12.73;;;14.90;79.90;;;;;;6120881;23;20422;-72
2021/06/15 05:20:31;;;;;;;15.65;12.48;;;14.90;80.00;;;;;;6122384;23;20468;-73
2021/06/15 05:23:11;;;;;;;18.42;12.63;;;14.90;80.10;;;;;;6120866;23;20076;-73
2021/06/15 05:25:38;;;;;;;16.20;12.20;;;15.00;80.10;;;;;;6121945;23;20002;-73
2021/06/15 05:28:05;;;;;;;17.05;12.25;;;15.00;80.10;;;;;;6121803;23;20002;-73
2021/06/15 05:30:32;;;;;;;17.42;12.25;;;15.00;80.10;;;;;;6120691;23;20009;-73
2021/06/15 05:32:58;;;;;;;16.75;11.77;;;14.90;80.20;;;;;;6122030;23;20057;-73
2021/06/15 05:35:25;;;;;;;15.77;12.40;;;14.90;80.20;;;;;;6120304;23;20385;-73
2021/06/15 05:37:52;;;;;;;12.68;10.43;;;14.90;80.30;;;;;;6122281;23;20334;-72
2021/06/15 05:40:19;;;;;;;18.50;12.07;;;14.90;80.40;;;;;;6118957;23;20172;-72
2021/06/15 05:42:45;;;;;;;15.57;11.43;;;14.90;80.50;;;;;;6121478;23;20061;-73
2021/06/15 05:45:13;;;;;;;16.00;11.05;;;14.90;80.50;;;;;;6121315;23;20006;-73
2021/06/15 05:47:39;;;;;;;16.05;10.82;;;14.90;80.50;;;;;;6121136;23;20008;-74
2021/06/15 05:50:07;;;;;;;11.43;8.88;;;14.90;80.50;;;;;;6121797;23;20002;-74
2021/06/15 05:52:34;;;;;;;13.57;10.07;;;14.90;80.50;;;;;;6120605;23;20032;-74
2021/06/15 05:55:01;;;;;;;11.35;9.80;;;14.90;80.60;;;;;;6121809;23;20001;-73
2021/06/15 05:57:30;;;;;;;13.52;10.18;;;14.90;80.70;;;;;;6120006;23;20013;-72
2021/06/15 05:59:58;;;;;;;13.90;9.93;;;14.90;80.70;;;;;;6120256;23;20389;-74
2021/06/15 06:02:25;;;;;;;13.30;10.77;;;14.90;80.70;;;;;;6121105;23;20453;-73
2021/06/15 06:10:10;;;;;;;14.80;10.77;;;14.90;80.80;;;;;;6120642;23;20029;-74
2021/06/15 06:12:38;;;;;;;13.52;10.38;;;14.90;80.80;;;;;;6120975;23;20092;-74
2021/06/15 06:15:07;;;;;;;12.95;10.10;;;14.90;80.80;;;;;;6120730;23;20426;-73
2021/06/15 06:17:34;;;;;;;12.65;10.23;;;14.90;80.80;;;;;;6121287;23;20006;-74
2021/06/15 06:20:00;;;;;;;11.77;9.77;;;14.90;80.90;;;;;;6121954;23;20092;-73
2021/06/15 06:22:27;;;;;;;9.73;8.38;;;14.90;80.80;;;;;;6120412;23;20009;-74
2021/06/15 06:24:54;;;;;;;13.63;9.88;;;14.90;80.90;;;;;;6121793;23;19998;-73
2021/06/15 06:27:20;;;;;;;11.45;8.57;;;14.90;80.90;;;;;;6120646;23;20044;-73
2021/06/15 06:29:47;;;;;;;10.13;7.88;;;14.90;80.80;;;;;;6121741;23;20065;-73
2021/06/15 06:32:16;;;;;;;12.02;8.00;;;14.90;80.80;;;;;;6120447;23;20006;-72
2021/06/15 06:34:42;;;;;;;10.93;7.68;;;14.90;80.80;;;;;;6121149;23;20002;-72
2021/06/15 06:37:09;;;;;;;8.75;7.10;;;14.90;80.90;;;;;;6121078;23;20002;-72
2021/06/15 06:39:35;;;;;;;9.40;7.45;;;14.90;80.80;;;;;;6120479;23;20021;-72
2021/06/15 06:42:02;;;;;;;9.20;8.15;;;14.90;80.80;;;;;;6121828;23;20006;-74
2021/06/15 06:44:30;;;;;;;8.90;7.70;;;14.90;80.80;;;;;;6119597;23;20005;-74
2021/06/15 06:47:00;;;;;;;6.70;6.07;;;14.90;80.80;;;;;;6121651;23;20340;-74
2021/06/15 06:49:26;;;;;;;8.63;7.57;;;14.90;81.40;;;;;;6119934;23;20101;-74
2021/06/15 06:51:53;;;;;;;11.18;7.03;;;15.00;80.80;;;;;;6121604;23;20183;-74
2021/06/15 06:54:19;;;;;;;7.65;6.82;;;15.00;80.90;;;;;;6120057;23;20014;-74
2021/06/15 06:56:46;;;;;;;11.18;6.88;;;14.90;80.80;;;;;;6120774;23;20074;-74
2021/06/15 06:59:12;;;;;;;7.78;6.85;;;15.00;80.90;;;;;;6121746;23;20057;-74
2021/06/15 07:01:39;;;;;;;9.20;6.50;;;14.90;80.90;;;;;;6120379;23;20026;-75
2021/06/15 07:04:05;;;;;;;10.77;6.57;;;15.00;81.00;;;;;;6121398;23;20077;-76
2021/06/15 07:06:35;;;;;;;8.75;5.75;;;15.00;81.00;;;;;;6119945;23;20009;-74
2021/06/15 07:09:02;;;;;;;8.20;5.95;;;15.00;81.00;;;;;;6121392;23;20085;-73
2021/06/15 07:11:28;;;;;;;8.35;5.80;;;15.00;81.00;;;;;;6119872;23;20007;-74
2021/06/15 07:13:55;;;;;;;8.10;6.10;;;15.00;80.90;;;;;;6121007;23;20438;-74
2021/06/15 07:16:21;;;;;;;7.88;5.63;;;15.00;80.90;;;;;;6121499;23;20002;-75
2021/06/15 07:18:52;;;;;;;7.30;6.35;;;15.00;80.90;;;;;;6118263;23;20478;-74
2021/06/15 07:21:18;;;;;;;7.03;5.90;;;15.00;80.90;;;;;;6121456;23;20006;-75
2021/06/15 07:23:45;;;;;;;8.55;6.15;;;15.00;80.80;;;;;;6118592;23;20006;-75
2021/06/15 07:26:11;;;;;;;7.18;6.47;;;15.00;80.90;;;;;;6121309;23;20009;-74
2021/06/15 07:29:17;;;;;;;7.47;6.05;;;15.00;80.90;;;;;;6120126;23;20029;-73
2021/06/15 07:32:23;;;;;;;9.80;6.28;;;15.00;80.90;;;;;;6120063;23;20012;-75
2021/06/15 07:35:29;;;;;;;7.82;7.10;;;15.10;81.00;;;;;;6121137;23;20010;-75
2021/06/15 07:38:35;;;;;;;8.35;6.40;;;15.10;81.00;;;;;;6121421;23;20002;-75
2021/06/15 07:41:42;;;;;;;8.55;7.53;;;15.10;81.70;;;;;;6119907;23;20006;-75
2021/06/15 07:44:48;;;;;;;7.93;7.13;;;15.10;81.10;;;;;;6120163;23;20006;-76
2021/06/15 07:47:54;;;;;;;7.43;5.60;;;15.10;81.10;;;;;;6121159;23;20429;-76
2021/06/15 07:51:00;;;;;;;6.60;5.97;;;15.20;81.20;;;;;;6120264;23;20045;-75
2021/06/15 07:54:06;;;;;;;11.18;7.35;;;15.20;81.30;;;;;;6119858;23;20006;-75
2021/06/15 07:57:12;;;;;;;8.38;5.65;;;15.20;81.30;;;;;;6121939;23;20062;-75
2021/06/15 08:00:18;;;;;;;6.28;5.68;;;15.20;81.30;;;;;;6120879;23;20005;-75
2021/06/15 08:03:24;;;;;;;7.07;6.43;;;15.30;81.40;;;;;;6121480;23;20048;-75
2021/06/15 08:06:30;;;;;;;8.10;5.30;;;15.30;81.50;;;;;;6122288;23;20053;-74
2021/06/15 08:09:36;;;;;;;6.65;6.05;;;15.30;81.50;;;;;;6122734;23;20014;-75
2021/06/15 08:12:42;;;;;;;7.75;6.80;;;15.30;81.60;;;;;;6121942;23;20433;-74
2021/06/15 08:15:49;;;;;;;8.43;7.45;;;15.40;81.80;;;;;;6121574;23;20293;-75
2021/06/15 08:18:55;;;;;;;7.07;6.43;;;15.40;81.80;;;;;;6120778;23;20002;-75
2021/06/15 08:22:01;;;;;;;6.70;6.00;;;15.40;81.80;;;;;;6122616;23;20018;-76
2021/06/15 08:25:07;;;;;;;7.60;5.70;;;15.50;81.90;;;;;;6121153;23;20002;-75
2021/06/15 08:28:14;;;;;;;7.55;5.72;;;15.50;81.90;;;;;;6121913;23;20002;-76
2021/06/15 08:31:20;;;;;;;5.78;5.18;;;15.50;82.00;;;;;;6120825;23;20016;-73
2021/06/15 08:34:26;;;;;;;7.88;5.85;;;15.60;82.20;;;;;;6120065;23;20069;-75
2021/06/15 08:37:32;;;;;;;7.50;6.05;;;15.60;82.30;;;;;;6121392;23;20086;-75
2021/06/15 08:40:41;;;;;;;6.88;5.43;;;15.70;82.40;;;;;;6122816;23;20426;-76
2021/06/15 08:43:47;;;;;;;9.40;5.97;;;15.70;82.50;;;;;;6123433;23;19998;-75
2021/06/15 08:46:53;;;;;;;6.18;5.47;;;15.80;82.50;;;;;;6121058;23;20061;-75
2021/06/15 08:49:59;;;;;;;5.65;5.15;;;15.80;82.50;;;;;;6121752;23;20378;-75
2021/06/15 08:53:05;;;;;;;5.72;4.95;;;15.90;82.70;;;;;;6122551;23;20025;-76
2021/06/15 08:56:11;;;;;;;7.35;5.80;;;15.90;82.80;;;;;;6121733;23;20002;-76
2021/06/15 08:59:41;;;;;;;7.30;4.90;;;15.90;83.00;;;;;;6120982;23;20084;-75
2021/06/15 09:02:47;;;;;;;10.25;6.45;;;15.90;83.20;;;;;;6121154;23;20077;-76
2021/06/15 09:05:53;;;;;;;5.68;4.60;;;16.00;83.40;;;;;;6122653;23;20002;-76
2021/06/15 09:09:11;;;;;;;6.78;5.95;;;16.00;83.50;;;;;;6121111;23;20127;-72
2021/06/15 09:11:50;;;;;;;5.28;4.80;;;16.00;83.70;;;;;;6120975;23;20418;-73
2021/06/15 09:14:59;;;;;;;7.07;5.03;;;16.10;84.00;;;;;;6122222;23;20010;-75
2021/06/15 09:17:29;;;;;;;6.07;5.47;;;16.10;84.10;;;;;;6120157;23;20013;-76
2021/06/15 09:20:38;;;;;;;6.35;5.32;;;16.10;84.20;;;;;;6121121;23;20525;-76
2021/06/15 09:23:44;;;;;;;5.93;4.45;;;16.10;84.20;;;;;;6122187;23;20041;-76
2021/06/15 09:26:50;;;;;;;6.07;4.78;;;16.10;84.30;;;;;;6121555;23;20002;-76
2021/06/15 09:29:36;;;;;;;5.32;4.25;;;16.20;84.40;;;;;;6118710;23;20010;-77
2021/06/15 09:32:22;;;;;;;4.35;3.75;;;16.20;84.40;;;;;;6122299;23;19998;-76
2021/06/15 09:35:37;;;;;;;6.65;4.57;;;16.20;84.40;;;;;;6121967;23;20065;-76
2021/06/15 09:38:43;;;;;;;4.45;3.83;;;16.30;84.40;;;;;;6120502;23;20006;-76
2021/06/15 09:41:52;;;;;;;7.82;4.78;;;16.30;84.30;;;;;;6121277;23;20442;-76
2021/06/15 09:45:01;;;;;;;5.40;3.90;;;16.40;84.70;;;;;;6121708;23;20006;-76
2021/06/15 09:48:07;;;;;;;7.10;3.83;;;16.50;85.00;;;;;;6121058;23;20073;-76
2021/06/15 09:51:14;;;;;;;6.22;4.13;;;16.60;85.20;;;;;;6120632;23;20005;-76
2021/06/15 09:54:23;;;;;;;6.30;4.28;;;16.70;85.30;;;;;;6122085;23;20022;-75
2021/06/15 09:57:29;;;;;;;5.78;3.63;;;16.80;85.40;;;;;;6121580;23;20060;-76
2021/06/15 10:00:39;;;;;;;5.30;4.75;;;16.80;85.20;;;;;;6120260;23;20333;-75
2021/06/15 10:03:45;;;;;;;4.63;3.42;;;16.90;85.10;;;;;;6120718;23;20006;-75
2021/06/15 10:06:54;;;;;;;4.15;3.53;;;17.00;85.20;;;;;;6122053;23;20087;-76
2021/06/15 10:09:44;;;;;;;7.03;3.90;;;17.10;85.10;;;;;;6120917;23;20018;-76
2021/06/15 10:12:50;;;;;;;5.22;3.72;;;17.20;85.20;;;;;;6119180;23;20431;-76
2021/06/15 10:15:56;;;;;;;8.20;4.00;;;17.20;84.90;;;;;;6121536;23;20002;-76
2021/06/15 10:19:02;;;;;;;8.55;4.40;;;17.30;84.80;;;;;;6121969;23;20009;-76
2021/06/15 10:22:08;;;;;;;6.40;4.03;;;17.40;84.50;;;;;;6120273;23;20160;-76
2021/06/15 10:25:14;;;;;;;6.78;4.60;;;17.50;84.40;;;;;;6121098;23;20002;-76
2021/06/15 10:28:22;;;;;;;8.10;4.05;;;17.50;84.20;;;;;;6121622;23;20165;-74
2021/06/15 10:31:28;;;;;;;5.60;3.50;;;17.60;83.80;;;;;;6120812;23;20029;-73
2021/06/15 10:34:34;;;;;;;6.32;4.13;;;17.60;83.50;;;;;;6120600;23;20370;-76
2021/06/15 10:37:32;;;;;;;6.18;3.72;;;17.50;82.90;;;;;;6121489;23;20009;-75
2021/06/15 10:40:19;;;;;;;6.93;4.25;;;17.50;82.30;;;;;;6121760;23;20133;-74
2021/06/15 10:43:11;;;;;;;6.53;4.45;;;17.50;82.10;;;;;;6118432;23;20012;-75
2021/06/15 10:46:19;;;;;;;6.13;4.38;;;17.50;81.70;;;;;;6121324;23;19997;-75
2021/06/15 10:49:30;;;;;;;6.38;4.22;;;17.40;81.40;;;;;;6121448;23;20099;-76
2021/06/15 10:52:36;;;;;;;9.07;5.50;;;17.40;81.30;;;;;;6120590;23;20017;-76
2021/06/15 10:55:41;;;;;;;8.98;3.83;;;17.40;81.10;;;;;;6119222;23;20010;-75
2021/06/15 10:58:33;;;;;;;6.43;4.50;;;17.30;80.80;;;;;;6121782;23;20025;-75
2021/06/15 11:01:54;;;;;;;7.30;5.00;;;17.30;80.70;;;;;;6120765;23;20037;-76
2021/06/15 11:05:00;;;;;;;18.02;5.43;;;17.30;80.80;;;;;;6120199;23;20040;-77
2021/06/15 11:08:16;;;;;;;5.70;3.88;;;17.20;80.60;;;;;;6121542;23;20648;-75
2021/06/15 11:11:25;;;;;;;7.20;4.13;;;17.20;81.30;;;;;;6120891;23;20064;-76
2021/06/15 11:14:12;;;;;;;5.55;4.25;;;17.20;80.70;;;;;;6120665;23;20260;-75
2021/06/15 11:17:21;;;;;;;6.03;3.65;;;17.20;80.80;;;;;;6120634;23;20053;-75
2021/06/15 11:20:27;;;;;;;7.97;4.50;;;17.20;81.00;;;;;;6121237;23;20349;-74
2021/06/15 11:23:32;;;;;;;4.43;3.25;;;17.30;81.00;;;;;;6121253;23;20009;-76
2021/06/15 11:26:38;;;;;;;8.00;4.18;;;17.40;81.00;;;;;;6117699;23;20028;-75
2021/06/15 11:29:47;;;;;;;11.93;3.95;;;17.50;80.70;;;;;;6121458;23;20400;-76
2021/06/15 11:32:52;;;;;;;5.93;4.13;;;17.60;80.50;;;;;;6123335;23;20084;-76
2021/06/15 11:35:58;;;;;;;6.50;3.67;;;17.70;80.30;;;;;;6121831;23;20013;-72
2021/06/15 11:39:04;;;;;;;3.90;3.55;;;17.70;79.90;;;;;;6122330;23;20006;-75
2021/06/15 11:42:16;;;;;;;5.60;3.50;;;17.90;79.70;;;;;;6122930;23;20389;-75
2021/06/15 11:45:26;;;;;;;5.85;3.25;;;18.00;79.40;;;;;;6121147;23;20009;-75
2021/06/15 11:48:57;;;;;;;7.25;3.45;;;18.10;79.20;;;;;;6101273;23;20469;-74
2021/06/15 11:51:56;;;;;;;7.30;3.78;;;18.20;78.90;;;;;;6118965;23;20410;-75
2021/06/15 11:55:02;;;;;;;4.60;3.63;;;18.20;78.50;;;;;;6122863;23;20069;-75
2021/06/15 11:58:08;;;;;;;3.67;3.33;;;18.30;78.30;;;;;;6122326;23;20010;-75
2021/06/15 12:00:54;;;;;;;6.47;3.58;;;18.40;78.10;;;;;;6121512;23;20018;-74
2021/06/15 12:04:00;;;;;;;5.90;3.25;;;18.40;78.10;;;;;;6122821;23;20034;-76
2021/06/15 12:07:07;;;;;;;5.60;3.22;;;18.50;78.10;;;;;;6122748;23;20086;-76
2021/06/15 12:10:24;;;;;;;5.05;3.40;;;18.50;78.00;;;;;;6121364;23;20435;-75
2021/06/15 12:13:34;;;;;;;5.60;3.35;;;18.60;78.00;;;;;;6121848;23;20018;-75
2021/06/15 12:16:26;;;;;;;5.15;3.35;;;18.60;77.60;;;;;;6122636;23;20650;-75
2021/06/15 12:19:32;;;;;;;4.22;3.20;;;18.60;77.30;;;;;;6121952;23;19994;-75
2021/06/15 12:22:38;;;;;;;5.32;3.03;;;18.70;77.10;;;;;;6121332;23;20021;-75
2021/06/15 12:25:50;;;;;;;6.50;3.95;;;18.80;77.00;;;;;;6122745;23;20411;-76
2021/06/15 12:28:56;;;;;;;5.68;3.10;;;18.80;77.00;;;;;;6122408;23;20014;-76
2021/06/15 12:31:43;;;;;;;7.85;3.08;;;18.90;76.60;;;;;;6120633;23;20006;-75
2021/06/15 12:34:52;;;;;;;5.35;3.72;;;18.80;76.70;;;;;;6122197;23;20025;-75
2021/06/15 12:38:01;;;;;;;4.07;2.75;;;18.80;76.30;;;;;;6123291;23;20137;-76
2021/06/15 12:41:07;;;;;;;5.35;2.78;;;18.80;76.30;;;;;;6121657;23;20101;-74
2021/06/15 12:44:16;;;;;;;7.50;3.20;;;18.70;76.30;;;;;;6121006;23;20002;-76
2021/06/15 12:47:31;;;;;;;6.53;3.38;;;18.70;76.60;;;;;;6122574;23;20444;-75
2021/06/15 12:50:42;;;;;;;4.55;2.92;;;18.70;77.00;;;;;;6122583;23;20010;-74
2021/06/15 12:53:49;;;;;;;4.05;2.67;;;18.70;77.10;;;;;;6121273;23;20005;-75
2021/06/15 12:57:05;;;;;;;5.30;2.97;;;18.70;77.20;;;;;;6121421;23;20005;-74
2021/06/15 13:00:17;;;;;;;7.00;3.08;;;18.70;77.10;;;;;;6120377;23;20041;-74
2021/06/15 13:03:26;;;;;;;7.35;3.53;;;18.80;77.20;;;;;;6122199;23;20002;-75
2021/06/15 13:06:32;;;;;;;8.57;3.33;;;18.80;77.20;;;;;;6120615;23;20065;-75
2021/06/15 13:09:38;;;;;;;6.30;3.20;;;18.90;77.10;;;;;;6121924;23;20017;-74
2021/06/15 13:12:25;;;;;;;5.40;3.00;;;18.90;76.90;;;;;;6122222;23;20065;-74
2021/06/15 13:15:37;;;;;;;4.88;2.97;;;18.90;76.80;;;;;;6121016;23;20065;-74
2021/06/15 13:18:43;;;;;;;5.50;3.15;;;19.00;76.80;;;;;;6121402;23;20064;-74
2021/06/15 13:21:47;;;;;;;8.93;2.67;;;19.00;76.60;;;;;;6121775;23;20018;-75
2021/06/15 13:24:53;;;;;;;4.47;3.20;;;19.00;76.50;;;;;;6121781;23;20009;-74
2021/06/15 13:28:17;;;;;;;5.75;2.83;;;19.00;76.50;;;;;;6118698;23;20006;-74
2021/06/15 13:31:23;;;;;;;5.15;3.30;;;19.10;76.30;;;;;;6118798;23;20020;-75
2021/06/15 13:34:29;;;;;;;6.07;2.83;;;19.10;76.20;;;;;;6121956;23;20335;-75
2021/06/15 13:37:36;;;;;;;6.05;2.85;;;19.10;76.10;;;;;;6121430;23;20002;-74
2021/06/15 13:40:44;;;;;;;8.43;2.75;;;19.10;76.10;;;;;;6120930;23;20018;-76
2021/06/15 13:43:14;;;;;;;5.45;3.22;;;19.10;75.90;;;;;;6121944;23;20006;-75
2021/06/15 13:46:21;;;;;;;6.88;2.83;;;19.10;75.90;;;;;;6121158;23;20322;-75
2021/06/15 13:49:27;;;;;;;3.55;2.70;;;19.10;75.90;;;;;;6120413;23;20002;-75
2021/06/15 13:52:33;;;;;;;3.75;2.97;;;19.10;76.40;;;;;;6121972;23;20006;-75
2021/06/15 13:55:39;;;;;;;11.52;3.90;;;19.10;75.80;;;;;;6122089;23;20318;-75
2021/06/15 13:58:45;;;;;;;3.13;2.83;;;19.10;75.90;;;;;;6120701;23;20012;-75
2021/06/15 14:01:51;;;;;;;3.80;2.95;;;19.10;75.90;;;;;;6120869;23;20113;-76
2021/06/15 14:04:57;;;;;;;5.22;2.83;;;19.00;75.80;;;;;;6121910;23;20033;-76
2021/06/15 14:08:06;;;;;;;8.20;3.38;;;19.00;75.90;;;;;;6121071;23;20001;-74
2021/06/15 14:10:37;;;;;;;4.43;3.17;;;19.00;75.90;;;;;;6120333;23;20025;-74
2021/06/15 14:13:06;;;;;;;4.38;2.83;;;19.00;76.00;;;;;;6119853;23;20331;-71
2021/06/15 14:15:33;;;;;;;9.52;3.33;;;18.90;76.00;;;;;;6120422;23;20477;-72
2021/06/15 14:18:00;;;;;;;7.43;3.40;;;18.90;76.20;;;;;;6121789;23;20009;-69
2021/06/15 14:20:30;;;;;;;7.22;3.15;;;18.90;76.60;;;;;;6120799;23;20018;-70
2021/06/15 14:22:58;;;;;;;4.35;3.40;;;18.90;76.60;;;;;;6120498;23;20040;-70
2021/06/15 14:25:28;;;;;;;12.13;5.30;;;18.90;76.70;;;;;;6122023;23;20010;-71
2021/06/15 14:27:57;;;;;;;9.18;4.72;;;18.80;76.60;;;;;;6120153;23;20006;-69
2021/06/15 14:30:25;;;;;;;8.15;4.00;;;18.90;77.30;;;;;;6121547;23;19997;-71